createdAt,value
2023-01-26T00:00:04.812Z,94851.13
2023-01-26T00:05:07.293Z,94851.84
2023-01-26T00:10:10.136Z,94834.97
2023-01-26T00:15:12.245Z,94821.13
2023-01-26T00:20:14.421Z,94816.44
2023-01-26T00:25:16.642Z,94817.78
2023-01-26T00:30:18.675Z,94820.00
2023-01-26T00:35:20.904Z,94803.72
2023-01-26T00:40:23.439Z,94808.19
2023-01-26T00:45:27.991Z,94778.16
2023-01-26T00:50:29.976Z,94782.31
2023-01-26T00:55:34.865Z,94776.00
2023-01-26T01:00:38.323Z,94767.34
2023-01-26T01:05:40.393Z,94767.88
2023-01-26T01:10:42.654Z,94750.81
2023-01-26T01:15:44.743Z,94749.44
2023-01-26T01:20:46.835Z,94750.44
2023-01-26T01:25:57.741Z,94745.66
2023-01-26T01:31:00.014Z,94739.50
2023-01-26T01:36:05.623Z,94754.41
2023-01-26T01:41:08.367Z,94745.03
2023-01-26T01:46:21.803Z,94742.69
2023-01-26T01:51:41.421Z,94737.88
2023-01-26T01:56:47.668Z,94741.59
2023-01-26T02:01:51.120Z,94750.59
2023-01-26T02:06:54.585Z,94748.19
2023-01-26T02:11:57.669Z,94727.69
2023-01-26T02:16:59.630Z,94722.13
2023-01-26T02:22:08.717Z,94717.69
2023-01-26T02:27:11.314Z,94708.06
2023-01-26T02:32:14.272Z,94705.38
2023-01-26T02:37:17.112Z,94697.94
2023-01-26T02:42:38.214Z,94692.09
2023-01-26T02:47:40.797Z,94677.50
2023-01-26T02:52:43.139Z,94679.09
2023-01-26T02:57:53.586Z,94673.13
2023-01-26T03:02:59.300Z,94673.56
2023-01-26T03:08:01.694Z,94668.94
2023-01-26T03:13:10.120Z,94661.50
2023-01-26T03:18:33.551Z,94674.09
2023-01-26T03:23:54.397Z,94659.44
2023-01-26T03:28:58.407Z,94657.06
2023-01-26T03:34:00.667Z,94656.97
2023-01-26T03:39:05.679Z,94634.00
2023-01-26T03:44:27.797Z,94631.41
2023-01-26T03:49:50.180Z,94617.44
2023-01-26T03:55:10.984Z,94625.25
2023-01-26T04:00:15.230Z,94615.25
2023-01-26T04:05:39.354Z,94599.03
2023-01-26T04:10:42.057Z,94587.22
2023-01-26T04:16:02.941Z,94602.13
2023-01-26T04:21:24.222Z,94568.78
2023-01-26T04:26:36.100Z,94576.47
2023-01-26T04:31:42.368Z,94542.97
2023-01-26T04:36:44.976Z,94554.59
2023-01-26T04:41:48.747Z,94554.59
2023-01-26T04:46:52.331Z,94548.94
2023-01-26T04:51:54.862Z,94526.41
2023-01-26T04:56:57.626Z,94528.84
2023-01-26T05:02:00.122Z,94531.88
2023-01-26T05:07:02.974Z,94525.13
2023-01-26T05:12:24.104Z,94521.19
2023-01-26T05:17:44.785Z,94525.06
2023-01-26T05:23:09.792Z,94524.56
2023-01-26T05:28:30.467Z,94520.38
2023-01-26T05:33:32.757Z,94523.41
2023-01-26T05:38:35.814Z,94511.13
2023-01-26T05:43:38.655Z,94507.22
2023-01-26T05:48:46.035Z,94496.19
2023-01-26T05:53:48.138Z,94490.88
2023-01-26T05:58:50.443Z,94491.88
2023-01-26T06:03:52.467Z,94467.81
2023-01-26T06:08:54.641Z,94444.13
2023-01-26T06:14:08.957Z,94456.00
2023-01-26T06:19:11.714Z,94452.16
2023-01-26T06:24:15.110Z,94458.75
2023-01-26T06:29:17.390Z,94473.94
2023-01-26T06:34:20.229Z,94465.28
2023-01-26T06:39:22.509Z,94466.09
2023-01-26T06:44:24.821Z,94430.91
2023-01-26T06:49:27.550Z,94440.59
2023-01-26T06:54:29.680Z,94432.66
2023-01-26T06:59:57.497Z,94442.41
2023-01-26T07:05:09.276Z,94431.38
2023-01-26T07:10:12.676Z,94437.59
2023-01-26T07:15:15.018Z,94432.88
2023-01-26T07:20:17.234Z,94423.63
2023-01-26T07:25:19.744Z,94424.41
2023-01-26T07:30:25.789Z,94415.84
2023-01-26T07:35:32.575Z,94423.00
2023-01-26T07:40:34.603Z,94416.81
2023-01-26T07:45:36.740Z,94415.81
2023-01-26T07:50:38.717Z,94387.44
2023-01-26T07:55:41.601Z,94393.25
2023-01-26T08:00:47.079Z,94411.22
2023-01-26T08:05:49.046Z,94399.56
2023-01-26T08:10:51.218Z,94412.88
2023-01-26T08:15:53.192Z,94424.41
2023-01-26T08:20:55.980Z,94417.34
2023-01-26T08:26:02.894Z,94426.69
2023-01-26T08:31:12.889Z,94428.34
2023-01-26T08:36:15.795Z,94426.41
2023-01-26T08:41:18.591Z,94433.09
2023-01-26T08:46:21.146Z,94437.13
2023-01-26T08:51:23.282Z,94411.66
2023-01-26T08:56:25.296Z,94433.38
2023-01-26T09:01:27.648Z,94424.56
2023-01-26T09:06:30.490Z,94418.91
2023-01-26T09:11:33.250Z,94423.47
2023-01-26T09:16:36.923Z,94425.09
2023-01-26T09:21:39.025Z,94426.19
2023-01-26T09:26:41.188Z,94417.22
2023-01-26T09:31:43.980Z,94421.06
2023-01-26T09:36:45.983Z,94405.66
2023-01-26T09:42:27.259Z,94401.59
2023-01-26T09:47:36.797Z,94389.97
2023-01-26T09:53:19.648Z,94383.50
2023-01-26T09:58:38.347Z,94373.34
2023-01-26T10:03:45.308Z,94375.16
2023-01-26T10:08:47.455Z,94370.88
2023-01-26T10:13:53.910Z,94375.06
2023-01-26T10:19:05.087Z,94349.34
2023-01-26T10:24:10.281Z,94350.41
2023-01-26T10:29:16.084Z,94343.53
2023-01-26T10:34:23.389Z,94341.44
2023-01-26T10:39:25.508Z,94318.81
2023-01-26T10:44:36.873Z,94312.84
2023-01-26T10:49:38.923Z,94312.25
2023-01-26T10:54:43.930Z,94308.69
2023-01-26T10:59:51.926Z,94288.91
2023-01-26T11:05:04.617Z,94286.97
2023-01-26T11:10:46.957Z,94271.50
2023-01-26T11:16:30.191Z,94279.25
2023-01-26T11:21:35.936Z,94296.91
2023-01-26T11:26:46.326Z,94288.09
2023-01-26T11:32:10.806Z,94278.22
2023-01-26T11:37:12.588Z,94272.38
2023-01-26T11:42:32.981Z,94257.97
2023-01-26T11:47:41.070Z,94250.59
2023-01-26T11:53:02.103Z,94254.66
2023-01-26T11:58:13.210Z,94247.31
2023-01-26T12:03:41.402Z,94236.03
2023-01-26T12:08:52.644Z,94198.19
2023-01-26T12:14:06.871Z,94198.97
2023-01-26T12:19:23.839Z,94186.47
2023-01-26T12:25:04.836Z,94172.88
2023-01-26T12:30:26.434Z,94169.56
2023-01-26T12:35:53.386Z,94159.53
2023-01-26T12:41:02.114Z,94131.97
2023-01-26T12:46:05.596Z,94125.59
2023-01-26T12:51:26.391Z,94127.00
2023-01-26T12:56:55.049Z,94128.41
2023-01-26T13:01:57.043Z,94103.69
2023-01-26T13:07:04.745Z,94097.63
2023-01-26T13:12:45.232Z,94088.69
2023-01-26T13:17:50.294Z,94083.22
2023-01-26T13:22:54.335Z,94077.44
2023-01-26T13:28:13.286Z,94059.59
2023-01-26T13:33:25.353Z,94049.91
2023-01-26T13:38:29.065Z,94052.88
2023-01-26T13:43:33.068Z,94042.09
2023-01-26T13:48:49.582Z,94040.38
2023-01-26T13:53:58.590Z,94032.09
2023-01-26T13:59:07.634Z,94025.19
2023-01-26T14:04:35.716Z,94023.94
2023-01-26T14:09:51.900Z,94017.25
2023-01-26T14:14:59.063Z,94014.09
2023-01-26T14:20:03.649Z,94003.47
2023-01-26T14:25:10.744Z,94011.44
2023-01-26T14:30:30.029Z,94001.75
2023-01-26T14:35:32.907Z,93998.16
2023-01-26T14:40:34.930Z,93999.44
2023-01-26T14:45:38.846Z,93996.59
2023-01-26T14:50:41.665Z,94001.63
2023-01-26T14:55:44.375Z,93992.84
2023-01-26T15:00:50.385Z,93993.78
2023-01-26T15:06:18.974Z,93996.63
2023-01-26T15:11:53.410Z,94003.97
2023-01-26T15:16:55.465Z,94006.13
2023-01-26T15:21:57.851Z,93998.16
2023-01-26T15:27:12.570Z,93997.38
2023-01-26T15:32:33.362Z,94000.34
2023-01-26T15:37:36.257Z,93979.09
2023-01-26T15:42:38.355Z,94002.22
2023-01-26T15:47:40.276Z,93992.84
2023-01-26T15:52:42.226Z,94003.78
2023-01-26T15:57:44.416Z,94007.06
2023-01-26T16:02:46.528Z,94008.63
2023-01-26T16:07:48.830Z,94011.44
2023-01-26T16:12:51.103Z,93987.97
2023-01-26T16:17:53.087Z,93983.59
2023-01-26T16:22:55.037Z,94020.34
2023-01-26T16:27:58.445Z,94021.59
2023-01-26T16:33:00.581Z,94017.75
2023-01-26T16:38:04.390Z,94024.47
2023-01-26T16:43:18.678Z,94019.16
2023-01-26T16:48:21.309Z,94015.56
2023-01-26T16:53:33.276Z,94038.00
2023-01-26T16:58:36.304Z,94048.16
2023-01-26T17:03:38.385Z,94038.84
2023-01-26T17:08:41.204Z,94040.22
2023-01-26T17:13:43.697Z,94068.88
2023-01-26T17:18:46.437Z,94077.75
2023-01-26T17:23:53.231Z,94083.16
2023-01-26T17:28:56.105Z,94081.63
2023-01-26T17:33:58.406Z,94085.22
2023-01-26T17:39:00.416Z,94069.03
2023-01-26T17:44:03.099Z,94098.97
2023-01-26T17:49:06.525Z,94101.44
2023-01-26T17:54:08.860Z,94081.91
2023-01-26T17:59:10.945Z,94087.63
2023-01-26T18:04:13.442Z,94114.00
2023-01-26T18:09:15.424Z,94095.56
2023-01-26T18:14:17.473Z,94121.69
2023-01-26T18:19:19.644Z,94127.84
2023-01-26T18:24:21.690Z,94127.25
2023-01-26T18:29:23.897Z,94130.78
2023-01-26T18:34:26.549Z,94121.75
2023-01-26T18:39:29.126Z,94113.03
2023-01-26T18:44:31.741Z,94144.50
2023-01-26T18:49:33.831Z,94148.63
2023-01-26T18:54:35.815Z,94156.44
2023-01-26T18:59:37.859Z,94159.22
2023-01-26T19:04:43.445Z,94177.41
2023-01-26T19:09:46.218Z,94168.28
2023-01-26T19:14:48.548Z,94165.13
2023-01-26T19:19:50.804Z,94168.44
2023-01-26T19:24:52.938Z,94170.81
2023-01-26T19:29:55.520Z,94168.19
2023-01-26T19:34:57.441Z,94163.91
2023-01-26T19:40:00.977Z,94158.00
2023-01-26T19:45:03.917Z,94171.00
2023-01-26T19:50:06.534Z,94167.13
2023-01-26T19:55:09.902Z,94166.75
2023-01-26T20:00:17.546Z,94173.44
2023-01-26T20:05:19.671Z,94169.53
2023-01-26T20:10:21.811Z,94177.03
2023-01-26T20:15:23.965Z,94162.03
2023-01-26T20:20:25.957Z,94180.09
2023-01-26T20:25:28.880Z,94159.16
2023-01-26T20:30:30.981Z,94180.06
2023-01-26T20:35:34.129Z,94149.66
2023-01-26T20:40:38.285Z,94170.19
2023-01-26T20:45:41.655Z,94169.34
2023-01-26T20:50:45.033Z,94159.97
2023-01-26T20:55:47.032Z,94143.16
2023-01-26T21:00:49.013Z,94168.13
2023-01-26T21:05:51.216Z,94165.75
2023-01-26T21:10:56.819Z,94161.84
2023-01-26T21:15:58.979Z,94161.94
2023-01-26T21:21:07.105Z,94156.50
2023-01-26T21:26:20.230Z,94166.88
2023-01-26T21:31:28.850Z,94172.16
2023-01-26T21:36:31.832Z,94158.88
2023-01-26T21:41:52.594Z,94163.31
2023-01-26T21:47:00.373Z,94160.94
2023-01-26T21:52:21.578Z,94152.25
2023-01-26T21:57:44.012Z,94143.97
2023-01-26T22:02:46.942Z,94149.00
2023-01-26T22:07:49.300Z,94151.38
2023-01-26T22:12:51.838Z,94132.53
2023-01-26T22:17:53.807Z,94138.56
2023-01-26T22:22:55.863Z,94141.78
2023-01-26T22:27:59.408Z,94142.88
2023-01-26T22:33:01.774Z,94151.91
2023-01-26T22:38:04.016Z,94145.31
2023-01-26T22:43:06.385Z,94142.75
2023-01-26T22:48:08.570Z,94149.03
2023-01-26T22:53:11.049Z,94154.41
2023-01-26T22:58:13.030Z,94162.84
2023-01-26T23:03:17.563Z,94171.06
2023-01-26T23:08:19.607Z,94159.81
2023-01-26T23:13:21.595Z,94149.81
2023-01-26T23:18:23.669Z,94142.78
2023-01-26T23:23:26.894Z,94152.25
2023-01-26T23:28:32.148Z,94148.84
2023-01-26T23:33:35.817Z,94153.31
2023-01-26T23:38:38.308Z,94136.25
2023-01-26T23:43:40.342Z,94152.56
2023-01-26T23:48:42.847Z,94136.00
2023-01-26T23:53:45.017Z,94121.06
2023-01-26T23:58:47.116Z,94144.13
